CDT,Max TemperatureF,Mean TemperatureF,Min TemperatureF,Max Dew PointF,MeanDew PointF,Min DewpointF,Max Humidity, Mean Humidity, Min Humidity, Max Sea Level PressureIn, Mean Sea Level PressureIn, Min Sea Level PressureIn, Max VisibilityMiles, Mean VisibilityMiles, Min VisibilityMiles, Max Wind SpeedMPH, Mean Wind SpeedMPH, Max Gust SpeedMPH,PrecipitationIn, CloudCover, Events, WindDirDegrees
2012-10-1,64,62,59,63,61,32,100,94,87,29.70,29.59,29.51,10,7,2,20,9,25,0.63,8,Rain,17
2012-10-2,74,64,54,58,55,47,100,69,38,29.99,29.82,29.70,10,10,5,13,4,16,0.00,4,,333
2012-10-3,79,66,52,64,57,52,100,74,47,30.15,30.07,29.99,10,10,7,14,3,17,0.00,1,,219
2012-10-4,82,71,60,65,62,59,100,74,47,30.27,30.20,30.16,10,10,7,9,3,12,0.00,1,,193
2012-10-5,84,71,58,65,61,58,100,72,43,30.19,30.10,29.98,10,8,2,13,4,16,0.00,1,,231
2012-10-6,69,58,47,64,50,45,100,86,72,30.16,30.10,30.00,10,9,1,22,12,26,0.67,8,Rain-Thunderstorm,26
2012-10-7,62,55,47,46,43,37,100,73,46,30.24,30.17,30.14,10,10,10,17,9,21,0.01,5,Rain,26
2012-10-8,71,59,47,54,47,43,100,76,51,30.24,30.19,30.14,10,10,4,13,5,15,0.25,7,Rain,33
2012-10-9,68,55,41,52,46,40,100,74,48,30.17,30.11,30.02,10,10,10,9,3,14,0.00,2,,190
2012-10-10,70,59,47,57,53,45,93,75,57,30.23,30.16,30.06,10,10,10,16,5,22,0.00,5,,16
2012-10-11,72,60,47,60,52,43,100,82,63,30.28,30.23,30.20,10,10,9,8,3,12,0.00,6,,60
2012-10-12,84,71,58,68,63,58,100,79,58,30.27,30.21,30.19,10,7,2,12,2,15,T,2,,240
2012-10-13,83,74,64,66,64,63,100,77,54,30.24,30.17,30.07,10,7,0,18,9,24,0.00,2,Fog,181
2012-10-14,77,71,65,70,66,63,100,85,69,30.11,30.00,29.92,10,7,0,22,9,29,0.42,4,Fog-Rain-Thunderstorm,229
2012-10-15,76,65,53,66,54,47,100,68,36,30.06,29.99,29.96,10,9,1,13,4,17,0.00,0,,1
2012-10-16,75,63,50,56,52,49,100,73,46,30.00,29.94,29.86,10,10,10,10,4,13,0.00,0,,212
2012-10-17,78,65,52,63,55,48,100,70,39,29.87,29.75,29.59,10,9,2,20,11,32,1.05,2,Rain-Thunderstorm,204
2012-10-18,73,62,50,63,49,38,100,65,29,29.86,29.79,29.70,10,10,2,17,5,23,0.00,1,Rain,278
2012-10-19,70,59,48,46,41,38,83,58,32,29.88,29.80,29.75,10,10,6,18,7,25,0.00,4,,277
2012-10-20,73,58,43,50,45,42,93,66,38,30.01,29.94,29.89,10,10,10,10,1,17,0.00,0,,220
2012-10-21,80,63,45,54,50,45,100,68,36,30.12,30.06,29.99,10,10,10,13,5,15,0.00,0,,197
2012-10-22,82,67,52,55,52,48,93,62,31,30.18,30.12,30.06,10,10,10,13,4,16,0.00,0,,208
2012-10-23,80,65,49,59,54,49,96,69,42,30.15,30.08,30.04,10,10,10,15,3,18,0.00,0,,196
2012-10-24,81,67,52,63,57,51,100,73,45,30.14,30.07,30.02,10,10,10,9,2,15,0.00,1,,205
2012-10-25,80,68,55,62,58,54,100,76,52,30.06,30.00,29.96,10,10,8,16,4,20,0.00,0,,191
2012-10-26,61,53,45,59,51,42,100,89,78,30.13,30.06,29.97,10,10,7,22,11,29,0.03,6,Rain,20
2012-10-27,53,49,45,43,40,36,89,73,56,30.11,30.08,30.03,10,10,10,21,14,24,0.00,8,,27
2012-10-28,60,50,40,37,35,32,79,58,37,30.15,30.08,30.04,10,10,10,25,13,33,0.00,2,,10
2012-10-29,58,48,37,34,29,21,82,54,25,30.21,30.13,30.05,10,10,10,23,11,29,0.00,0,,3
2012-10-30,61,49,37,33,28,23,70,47,24,30.04,29.98,29.91,10,10,10,17,6,26,0.00,0,,321
2012-10-31,68,53,38,39,35,31,92,61,29,30.00,29.96,29.92,10,10,10,12,3,20,0.00,0,,333